Terminal Aerodrome Forecast
Issued by NWS

Home | Current Version | Previous Version | Text Only | Print | Product List | Glossary On
Versions: 1 2 3 4 5 6 7 8 9 10 11 12 13 14
000
FTUS46 KSTO 271100
TAFSMF
TAF
KSMF 271125Z 2712/2812 15009KT P6SM SKC
     FM272100 22005KT P6SM SKC
     FM280300 19008KT P6SM SKC=

USA.gov is the U.S. government's official web portal to all federal, state and local government web resources and services.